createdAt,value
2022-12-18T00:05:27.270Z,10.40
2022-12-18T00:13:35.666Z,10.50
2022-12-18T00:21:41.388Z,10.20
2022-12-18T00:29:50.238Z,10.00
2022-12-18T00:37:55.785Z,10.40
2022-12-18T00:46:05.223Z,10.40
2022-12-18T00:54:10.909Z,10.60
2022-12-18T01:02:20.093Z,10.20
2022-12-18T01:10:26.044Z,10.10
2022-12-18T01:18:33.967Z,10.00
2022-12-18T01:26:39.281Z,10.10
2022-12-18T01:34:47.242Z,10.20
2022-12-18T01:42:55.332Z,9.60
2022-12-18T01:51:05.726Z,9.40
2022-12-18T01:59:14.909Z,9.60
2022-12-18T02:07:35.221Z,9.40
2022-12-18T02:15:46.315Z,9.50
2022-12-18T02:24:03.825Z,9.30
2022-12-18T02:32:17.269Z,9.40
2022-12-18T02:40:23.659Z,9.10
2022-12-18T02:48:33.665Z,9.10
2022-12-18T02:56:42.834Z,9.30
2022-12-18T03:04:55.293Z,8.90
2022-12-18T03:13:05.811Z,8.80
2022-12-18T03:21:17.768Z,8.90
2022-12-18T03:29:26.865Z,9.10
2022-12-18T03:37:37.980Z,9.20
2022-12-18T03:45:52.130Z,9.10
2022-12-18T03:54:03.167Z,8.70
2022-12-18T04:02:13.185Z,8.80
2022-12-18T04:10:22.005Z,8.80
2022-12-18T04:18:27.857Z,8.90
2022-12-18T04:26:37.006Z,8.90
2022-12-18T04:34:52.020Z,8.90
2022-12-18T04:43:00.123Z,8.80
2022-12-18T04:51:05.525Z,8.80
2022-12-18T04:59:13.469Z,8.90
2022-12-18T05:07:18.758Z,9.10
2022-12-18T05:15:26.695Z,9.00
2022-12-18T05:23:32.085Z,9.00
2022-12-18T05:31:43.003Z,9.10
2022-12-18T05:39:48.880Z,8.90
2022-12-18T05:47:57.527Z,9.30
2022-12-18T05:56:05.411Z,9.00
2022-12-18T06:04:13.533Z,9.20
2022-12-18T06:12:18.959Z,9.40
2022-12-18T06:20:30.523Z,9.10
2022-12-18T06:28:38.694Z,9.40
2022-12-18T06:36:46.744Z,9.30
2022-12-18T06:44:52.009Z,9.50
2022-12-18T06:52:59.930Z,9.30
2022-12-18T07:01:06.415Z,9.40
2022-12-18T07:09:14.393Z,9.30
2022-12-18T07:17:20.576Z,9.10
2022-12-18T07:25:29.700Z,9.50
2022-12-18T07:33:35.401Z,9.50
2022-12-18T07:41:47.606Z,9.60
2022-12-18T07:49:54.992Z,9.40
2022-12-18T07:58:05.179Z,9.70
2022-12-18T08:06:12.591Z,9.70
2022-12-18T08:14:20.715Z,9.70
2022-12-18T08:22:26.795Z,9.60
2022-12-18T08:30:34.778Z,10.00
2022-12-18T08:38:41.157Z,9.90
2022-12-18T08:46:50.067Z,10.20
2022-12-18T08:54:55.393Z,10.40
2022-12-18T09:03:03.493Z,10.40
2022-12-18T09:11:15.698Z,10.50
2022-12-18T09:19:25.674Z,10.80
2022-12-18T09:27:31.125Z,10.90
2022-12-18T09:35:40.440Z,11.00
2022-12-18T09:43:50.894Z,11.20
2022-12-18T09:52:05.136Z,10.70
2022-12-18T10:00:20.100Z,10.80
2022-12-18T10:08:38.642Z,10.90
2022-12-18T10:16:51.784Z,10.80
2022-12-18T10:25:05.923Z,10.80
2022-12-18T10:33:16.274Z,10.70
2022-12-18T10:41:32.056Z,10.40
2022-12-18T10:49:39.299Z,10.60
2022-12-18T10:57:47.440Z,10.20
2022-12-18T11:06:05.846Z,10.10
2022-12-18T11:14:20.095Z,9.60
2022-12-18T11:22:29.223Z,9.30
2022-12-18T11:30:39.273Z,9.20
2022-12-18T11:38:47.617Z,9.10
2022-12-18T11:47:00.903Z,8.90
2022-12-18T11:55:16.339Z,8.70
2022-12-18T12:03:53.440Z,8.80
2022-12-18T12:12:14.695Z,9.40
2022-12-18T12:20:29.782Z,9.60
2022-12-18T12:29:01.398Z,9.50
2022-12-18T12:37:21.777Z,9.50
2022-12-18T12:45:38.678Z,9.50
2022-12-18T12:53:46.971Z,9.50
2022-12-18T13:01:58.565Z,9.70
2022-12-18T13:10:36.281Z,9.70
2022-12-18T13:18:42.094Z,9.80
2022-12-18T13:26:50.840Z,9.80
2022-12-18T13:35:41.379Z,9.60
2022-12-18T13:43:51.349Z,9.90
2022-12-18T13:51:59.462Z,9.50
2022-12-18T14:00:29.835Z,9.70
2022-12-18T14:08:41.651Z,9.70
2022-12-18T14:16:51.049Z,9.50
2022-12-18T14:25:17.555Z,9.40
2022-12-18T14:33:27.087Z,9.20
2022-12-18T14:41:34.226Z,9.20
2022-12-18T14:49:46.151Z,8.90
2022-12-18T14:57:55.501Z,8.80
2022-12-18T15:06:20.458Z,8.70
2022-12-18T15:14:28.501Z,8.70
2022-12-18T15:22:40.547Z,8.50
2022-12-18T15:31:06.586Z,8.80
2022-12-18T15:39:17.359Z,8.50
2022-12-18T15:47:25.524Z,8.60
2022-12-18T15:55:47.666Z,8.80
2022-12-18T16:04:00.076Z,8.70
2022-12-18T16:12:08.740Z,9.10
2022-12-18T16:20:17.029Z,9.00
2022-12-18T16:28:25.026Z,8.80
2022-12-18T16:36:30.358Z,8.90
2022-12-18T16:44:39.572Z,8.80
2022-12-18T16:52:45.282Z,9.00
2022-12-18T17:00:53.528Z,8.80
2022-12-18T17:08:59.987Z,8.60
2022-12-18T17:17:20.784Z,8.60
2022-12-18T17:25:27.601Z,8.70
2022-12-18T17:33:35.611Z,8.60
2022-12-18T17:41:40.949Z,8.60
2022-12-18T17:49:48.960Z,8.60
2022-12-18T17:57:54.470Z,8.80
2022-12-18T18:06:03.984Z,8.90
2022-12-18T18:14:14.464Z,8.70
2022-12-18T18:22:23.040Z,8.70
2022-12-18T18:30:30.879Z,8.70
2022-12-18T18:38:38.951Z,8.70
2022-12-18T18:46:44.299Z,8.60
2022-12-18T18:55:12.219Z,8.70
2022-12-18T19:03:21.141Z,8.40
2022-12-18T19:11:54.947Z,8.60
2022-12-18T19:20:00.292Z,8.50
2022-12-18T19:28:21.669Z,8.50
2022-12-18T19:36:30.358Z,8.50
2022-12-18T19:44:40.703Z,8.40
2022-12-18T19:52:46.928Z,7.90
2022-12-18T20:00:56.138Z,7.30
2022-12-18T20:09:03.814Z,7.10
2022-12-18T20:17:12.463Z,7.50
2022-12-18T20:25:26.242Z,7.70
2022-12-18T20:33:46.327Z,7.80
2022-12-18T20:41:57.320Z,7.60
2022-12-18T20:50:09.398Z,7.40
2022-12-18T20:58:14.786Z,7.50
2022-12-18T21:06:30.795Z,7.30
2022-12-18T21:14:36.288Z,7.40
2022-12-18T21:22:44.582Z,7.10
2022-12-18T21:30:50.622Z,7.10
2022-12-18T21:38:59.541Z,7.10
2022-12-18T21:47:21.370Z,7.00
2022-12-18T21:55:30.667Z,6.60
2022-12-18T22:03:36.227Z,6.50
2022-12-18T22:11:45.139Z,6.40
2022-12-18T22:19:50.476Z,6.30
2022-12-18T22:28:10.813Z,6.30
2022-12-18T22:36:16.132Z,6.20
2022-12-18T22:44:26.277Z,6.40
2022-12-18T22:52:31.620Z,6.80
2022-12-18T23:00:39.593Z,6.60
2022-12-18T23:08:44.905Z,6.50
2022-12-18T23:16:53.170Z,6.30
2022-12-18T23:24:58.759Z,6.20
2022-12-18T23:33:06.866Z,5.90
2022-12-18T23:41:13.752Z,5.80
2022-12-18T23:49:21.686Z,5.80
2022-12-18T23:57:28.640Z,5.70
